ENST

Sandnessjøen , Stokka Airport

Alstahaug, Norway
METAR ENST 171350Z 11003KT CAVOK M04/M09 Q1018 RMK WIND 300FT 13004KT
Observed Flight Rules
Dec-17 @ 13:50 UTC (40 minutes ago) Visual Flight Rules
Wind Visibility Clouds
110° at 3 knots 10,000+ meters
  • Clear skies
Temperatures Readings
Current -4°C / 25°F
Dewpoint -9°C / 16°F
Humidity 69%
Altimeter 30.06" Hg
Pressure 1018 hPa
Elevation 17
METAR ENST 171350Z 11003KT CAVOK M04/M09 Q1018 RMK WIND 300FT 13004KT
Observed Flight Rules
Dec-17 @ 13:50 UTC
(40 minutes ago)
VFR
Wind Visibility
110° at 3 knots 10,000+ meters
Clouds
  • Clear skies
Temperature Dewpoint
-4°C / 25°F -9°C / 16°F
Humidity Altimeter Pressure
69% 30.06" Hg 1018 hPa